Time;durP1;ratioP1;P1;durP2;ratioP2;P2;SDS_P1;SDS_P2;PMS_P1;PMS_P2;Temp;Humidity;BMP_temperature;BMP_pressure;BME280_temperature;BME280_humidity;BME280_pressure;Samples;Min_cycle;Max_cycle;Signal;HPM_P1;HPM_P2
2023/04/12 00:03:56;;;;;;;1.00;1.00;;;;;;;;;;10277378;28;20225;-79
2023/04/12 00:08:57;;;;;;;0.90;0.90;;;;;;;;;;10271812;28;20236;-80
2023/04/12 00:13:58;;;;;;;2.08;1.15;;;;;;;;;;10277209;28;21054;-81
2023/04/12 00:19:00;;;;;;;0.90;0.90;;;;;;;;;;10273998;28;20308;-79
2023/04/12 00:24:01;;;;;;;1.38;0.90;;;;;;;;;;10277777;28;20249;-81
2023/04/12 00:29:02;;;;;;;2.25;1.00;;;;;;;;;;10280525;28;20213;-80
2023/04/12 00:34:03;;;;;;;1.27;1.17;;;;;;;;;;10284406;28;20225;-80
2023/04/12 00:39:05;;;;;;;1.13;1.13;;;;;;;;;;10270555;28;20264;-80
2023/04/12 00:44:06;;;;;;;0.98;0.98;;;;;;;;;;10259495;28;20225;-81
2023/04/12 00:49:08;;;;;;;1.42;1.20;;;;;;;;;;10283511;28;20250;-81
2023/04/12 00:54:10;;;;;;;1.17;1.05;;;;;;;;;;10274687;28;20218;-78
2023/04/12 00:59:11;;;;;;;2.67;1.42;;;;;;;;;;10278257;28;20884;-81
2023/04/12 01:04:12;;;;;;;1.60;1.30;;;;;;;;;;10288469;28;20261;-78
2023/04/12 01:09:29;;;;;;;1.35;1.25;;;;;;;;;;10242914;28;20273;-78
2023/04/12 01:14:43;;;;;;;3.60;1.15;;;;;;;;;;10245345;28;20715;-79
2023/04/12 01:20:00;;;;;;;1.55;1.20;;;;;;;;;;10245265;28;20297;-81
2023/04/12 01:25:22;;;;;;;0.90;0.90;;;;;;;;;;10246772;28;20221;-80
2023/04/12 01:30:26;;;;;;;1.17;1.17;;;;;;;;;;10268540;28;20229;-80
2023/04/12 01:35:29;;;;;;;1.90;1.38;;;;;;;;;;10257807;28;20809;-80
2023/04/12 01:40:31;;;;;;;1.20;1.10;;;;;;;;;;10266047;28;20216;-81
2023/04/12 01:45:32;;;;;;;1.05;0.90;;;;;;;;;;10272728;28;20221;-79
2023/04/12 01:50:37;;;;;;;3.75;1.27;;;;;;;;;;10270611;28;20276;-79
2023/04/12 01:55:39;;;;;;;2.05;1.10;;;;;;;;;;10267802;28;20225;-80
2023/04/12 02:00:41;;;;;;;4.53;0.98;;;;;;;;;;10285684;28;20228;-80
2023/04/12 02:05:42;;;;;;;1.30;1.20;;;;;;;;;;10267604;28;20253;-80
2023/04/12 02:10:43;;;;;;;1.58;1.33;;;;;;;;;;10253737;28;20296;-80
2023/04/12 02:15:44;;;;;;;1.77;1.15;;;;;;;;;;10256386;28;20237;-79
2023/04/12 02:20:45;;;;;;;1.63;1.55;;;;;;;;;;10249413;28;20218;-80
2023/04/12 02:25:47;;;;;;;0.82;0.82;;;;;;;;;;10265796;28;20222;-80
2023/04/12 02:30:52;;;;;;;1.17;1.17;;;;;;;;;;10269079;28;20276;-80
2023/04/12 02:35:56;;;;;;;3.25;1.42;;;;;;;;;;10280877;28;20912;-80
2023/04/12 02:40:57;;;;;;;6.07;1.50;;;;;;;;;;10266086;28;20220;-79
2023/04/12 02:45:58;;;;;;;2.35;1.52;;;;;;;;;;10261740;28;20226;-78
2023/04/12 02:50:59;;;;;;;5.43;1.98;;;;;;;;;;10246936;28;20513;-79
2023/04/12 02:56:03;;;;;;;5.05;1.13;;;;;;;;;;10237419;28;20220;-79
2023/04/12 03:01:06;;;;;;;4.15;2.08;;;;;;;;;;10269229;28;20225;-80
2023/04/12 03:06:16;;;;;;;3.97;1.77;;;;;;;;;;10236160;28;20214;-79
2023/04/12 03:11:17;;;;;;;4.03;1.63;;;;;;;;;;10240670;28;20221;-79
2023/04/12 03:16:22;;;;;;;1.92;1.70;;;;;;;;;;10273437;28;20699;-79
2023/04/12 03:21:27;;;;;;;3.75;2.00;;;;;;;;;;10255689;28;20221;-80
2023/04/12 03:26:30;;;;;;;4.25;2.08;;;;;;;;;;10282065;28;20763;-80
2023/04/12 03:31:34;;;;;;;3.50;2.10;;;;;;;;;;10254454;28;20308;-80
2023/04/12 03:36:40;;;;;;;2.30;2.00;;;;;;;;;;10254915;28;20309;-80
2023/04/12 03:41:52;;;;;;;4.75;2.47;;;;;;;;;;10249569;28;20316;-81
2023/04/12 03:46:54;;;;;;;8.35;2.60;;;;;;;;;;10285498;28;20228;-80
2023/04/12 03:51:57;;;;;;;2.08;1.98;;;;;;;;;;10265967;28;20221;-81
2023/04/12 03:57:00;;;;;;;1.42;1.35;;;;;;;;;;10265177;28;20842;-79
2023/04/12 04:02:09;;;;;;;3.47;2.38;;;;;;;;;;10265509;28;20221;-80
2023/04/12 04:07:17;;;;;;;6.18;2.78;;;;;;;;;;10246784;28;20228;-81
2023/04/12 04:12:20;;;;;;;2.55;2.35;;;;;;;;;;10253112;28;20229;-80
2023/04/12 04:17:25;;;;;;;2.95;2.75;;;;;;;;;;10253928;28;20209;-79
2023/04/12 04:22:28;;;;;;;3.58;3.28;;;;;;;;;;10259869;28;20229;-80
2023/04/12 04:27:33;;;;;;;3.10;2.50;;;;;;;;;;10251500;28;20221;-81
2023/04/12 04:32:34;;;;;;;3.72;3.42;;;;;;;;;;10253560;28;20640;-80
2023/04/12 04:37:36;;;;;;;5.72;3.65;;;;;;;;;;10251909;28;20300;-82
2023/04/12 04:42:39;;;;;;;2.33;2.17;;;;;;;;;;10246411;28;20796;-82
2023/04/12 04:47:40;;;;;;;4.28;2.85;;;;;;;;;;10241098;28;20730;-82
2023/04/12 04:52:41;;;;;;;5.60;4.35;;;;;;;;;;10212197;28;20217;-81
2023/04/12 04:57:47;;;;;;;4.53;4.13;;;;;;;;;;10230126;28;20819;-79
2023/04/12 05:02:49;;;;;;;7.57;3.92;;;;;;;;;;10233460;28;20264;-80
2023/04/12 05:07:57;;;;;;;3.28;2.90;;;;;;;;;;10233991;28;20613;-81
2023/04/12 05:12:59;;;;;;;4.80;3.85;;;;;;;;;;10242535;28;20217;-82
2023/04/12 05:18:00;;;;;;;2.97;2.70;;;;;;;;;;10230367;28;20213;-80
2023/04/12 05:23:02;;;;;;;3.85;3.55;;;;;;;;;;10252952;28;20228;-80
2023/04/12 05:28:06;;;;;;;4.57;3.65;;;;;;;;;;10251720;28;20842;-82
2023/04/12 05:33:07;;;;;;;2.70;2.50;;;;;;;;;;10241257;28;20852;-78
2023/04/12 05:38:12;;;;;;;2.55;2.08;;;;;;;;;;10248631;28;20218;-81
2023/04/12 05:43:13;;;;;;;6.90;2.25;;;;;;;;;;10238312;28;20806;-83
2023/04/12 05:48:14;;;;;;;3.55;1.48;;;;;;;;;;10248360;28;20221;-82
2023/04/12 05:53:16;;;;;;;3.78;1.85;;;;;;;;;;10235415;28;20901;-78
2023/04/12 05:58:17;;;;;;;1.63;1.52;;;;;;;;;;10272020;28;20263;-81
2023/04/12 06:03:18;;;;;;;1.40;1.10;;;;;;;;;;10257252;28;20229;-79
2023/04/12 06:08:19;;;;;;;1.85;1.75;;;;;;;;;;10273588;28;20244;-80
2023/04/12 06:13:21;;;;;;;1.50;1.40;;;;;;;;;;10265429;28;20231;-79
2023/04/12 06:18:22;;;;;;;1.38;1.27;;;;;;;;;;10256501;28;20244;-77
2023/04/12 06:23:23;;;;;;;3.38;1.25;;;;;;;;;;10268191;28;20227;-80
2023/04/12 06:28:26;;;;;;;1.63;1.08;;;;;;;;;;10251027;28;20225;-81
2023/04/12 06:33:27;;;;;;;0.75;0.75;;;;;;;;;;10253548;28;20238;-82
2023/04/12 06:38:29;;;;;;;1.13;1.13;;;;;;;;;;10262738;28;20222;-79
2023/04/12 06:43:30;;;;;;;3.72;1.30;;;;;;;;;;10277607;28;20260;-77
2023/04/12 06:48:31;;;;;;;1.15;1.15;;;;;;;;;;10248198;28;20587;-80
2023/04/12 06:53:33;;;;;;;1.00;0.90;;;;;;;;;;10236019;28;20218;-81
2023/04/12 06:58:35;;;;;;;2.58;1.25;;;;;;;;;;10273547;28;20738;-80
2023/04/12 07:03:36;;;;;;;0.90;0.90;;;;;;;;;;10251875;28;20306;-78
2023/04/12 07:08:37;;;;;;;1.75;0.68;;;;;;;;;;10266275;28;20728;-80
2023/04/12 07:13:38;;;;;;;1.10;0.80;;;;;;;;;;10261144;28;20248;-80
2023/04/12 07:18:39;;;;;;;0.52;0.52;;;;;;;;;;10273596;28;20268;-80
2023/04/12 07:23:40;;;;;;;2.90;0.85;;;;;;;;;;10283470;28;20224;-81
2023/04/12 07:28:41;;;;;;;0.90;0.82;;;;;;;;;;10261715;28;20257;-80
2023/04/12 07:33:42;;;;;;;6.70;1.10;;;;;;;;;;10259273;28;20229;-79
2023/04/12 07:38:43;;;;;;;1.15;1.05;;;;;;;;;;10243211;28;20248;-82
2023/04/12 07:43:44;;;;;;;2.10;1.25;;;;;;;;;;10269718;28;20218;-82
2023/04/12 07:48:45;;;;;;;1.02;1.02;;;;;;;;;;10266942;28;20987;-81
2023/04/12 07:53:50;;;;;;;0.88;0.88;;;;;;;;;;10255796;28;20325;-81
2023/04/12 07:58:51;;;;;;;2.35;0.90;;;;;;;;;;10263067;28;20217;-84
2023/04/12 08:03:52;;;;;;;1.23;0.75;;;;;;;;;;10263855;28;20264;-82
2023/04/12 08:08:53;;;;;;;3.95;0.70;;;;;;;;;;10270172;28;20368;-80
2023/04/12 08:13:54;;;;;;;2.38;1.15;;;;;;;;;;10236160;28;20217;-81
2023/04/12 08:18:56;;;;;;;1.98;0.80;;;;;;;;;;10254875;28;20216;-81
2023/04/12 08:23:57;;;;;;;0.80;0.80;;;;;;;;;;10262765;28;20276;-83
2023/04/12 08:28:58;;;;;;;2.80;0.80;;;;;;;;;;10231557;28;20529;-81
2023/04/12 08:33:59;;;;;;;1.63;0.82;;;;;;;;;;10245458;28;20270;-80
2023/04/12 08:39:00;;;;;;;1.23;1.10;;;;;;;;;;10240165;28;20209;-81
2023/04/12 08:44:02;;;;;;;4.32;0.77;;;;;;;;;;10241242;28;20221;-79
2023/04/12 08:49:03;;;;;;;2.35;0.70;;;;;;;;;;10248146;28;20721;-79
2023/04/12 08:54:04;;;;;;;2.25;0.98;;;;;;;;;;10252317;28;20249;-84
2023/04/12 08:59:06;;;;;;;2.35;1.15;;;;;;;;;;10225402;28;20244;-83
2023/04/12 09:04:09;;;;;;;2.85;0.88;;;;;;;;;;10280982;28;20220;-82
2023/04/12 09:09:10;;;;;;;3.55;1.05;;;;;;;;;;10275071;28;20229;-80
2023/04/12 09:14:24;;;;;;;2.92;0.55;;;;;;;;;;10263527;28;20222;-81
2023/04/12 09:19:32;;;;;;;1.02;0.70;;;;;;;;;;10238094;28;20693;-79
2023/04/12 09:24:45;;;;;;;0.95;0.80;;;;;;;;;;10219256;28;20217;-81
2023/04/12 09:29:50;;;;;;;0.82;0.60;;;;;;;;;;10240794;28;20221;-81
2023/04/12 09:34:59;;;;;;;0.57;0.57;;;;;;;;;;10248316;28;20221;-79
2023/04/12 09:40:02;;;;;;;1.90;0.75;;;;;;;;;;10234371;28;20304;-84
2023/04/12 09:45:18;;;;;;;1.65;0.50;;;;;;;;;;10234845;28;20303;-84
2023/04/12 09:50:21;;;;;;;2.78;0.98;;;;;;;;;;10247254;28;20304;-82
2023/04/12 09:55:24;;;;;;;1.88;0.90;;;;;;;;;;10256825;28;20222;-82
2023/04/12 10:00:26;;;;;;;1.48;0.90;;;;;;;;;;10241256;28;20226;-81
2023/04/12 10:05:27;;;;;;;0.60;0.60;;;;;;;;;;10258280;28;20249;-83
2023/04/12 10:10:28;;;;;;;0.60;0.60;;;;;;;;;;10246235;28;20226;-82
2023/04/12 10:15:29;;;;;;;0.80;0.80;;;;;;;;;;10260349;28;21520;-85
2023/04/12 10:20:35;;;;;;;0.80;0.80;;;;;;;;;;10253538;28;21150;-81
2023/04/12 10:25:41;;;;;;;2.58;0.73;;;;;;;;;;10230071;28;20778;-82
2023/04/12 10:30:42;;;;;;;0.85;0.85;;;;;;;;;;10251897;28;20227;-81
2023/04/12 10:35:52;;;;;;;4.25;0.90;;;;;;;;;;10223945;28;20228;-82
2023/04/12 10:41:12;;;;;;;2.95;0.60;;;;;;;;;;10264606;28;20230;-83
2023/04/12 10:46:32;;;;;;;0.68;0.68;;;;;;;;;;10261625;28;20217;-85
2023/04/12 10:51:33;;;;;;;1.33;0.45;;;;;;;;;;10262111;28;20224;-84
2023/04/12 10:56:41;;;;;;;8.93;0.90;;;;;;;;;;10266089;28;20202;-83
2023/04/12 11:02:05;;;;;;;1.48;0.77;;;;;;;;;;10268499;28;20244;-84
2023/04/12 11:07:10;;;;;;;0.45;0.45;;;;;;;;;;10269979;28;20225;-86
2023/04/12 11:12:26;;;;;;;0.77;0.70;;;;;;;;;;10270671;28;20607;-84
2023/04/12 11:17:27;;;;;;;1.75;0.60;;;;;;;;;;10277096;28;20245;-85
2023/04/12 11:22:30;;;;;;;0.80;0.68;;;;;;;;;;10260976;28;22936;-84
2023/04/12 11:27:31;;;;;;;2.42;0.60;;;;;;;;;;10259475;28;20226;-79
2023/04/12 11:32:33;;;;;;;1.88;0.85;;;;;;;;;;10255814;28;20221;-81
2023/04/12 11:37:34;;;;;;;3.08;0.90;;;;;;;;;;10261171;28;21768;-81
2023/04/12 11:42:39;;;;;;;1.08;0.88;;;;;;;;;;10267302;28;20218;-82
2023/04/12 11:47:43;;;;;;;3.15;0.60;;;;;;;;;;10264744;28;20256;-82
2023/04/12 11:52:44;;;;;;;2.40;0.70;;;;;;;;;;10274095;28;20367;-83
2023/04/12 11:57:54;;;;;;;12.88;1.10;;;;;;;;;;10268486;28;20248;-82
2023/04/12 12:02:55;;;;;;;4.32;0.95;;;;;;;;;;10251103;28;21249;-82
2023/04/12 12:07:56;;;;;;;4.93;1.90;;;;;;;;;;10263814;28;20221;-83
2023/04/12 12:12:57;;;;;;;0.52;0.52;;;;;;;;;;10253576;28;20217;-81
2023/04/12 12:18:01;;;;;;;6.90;1.20;;;;;;;;;;10253793;28;20223;-82
2023/04/12 12:23:02;;;;;;;1.02;0.82;;;;;;;;;;10252935;28;20284;-82
2023/04/12 12:28:04;;;;;;;1.15;1.13;;;;;;;;;;10256065;28;20297;-84
2023/04/12 12:33:05;;;;;;;0.95;0.95;;;;;;;;;;10279134;28;20218;-85
2023/04/12 12:38:07;;;;;;;1.52;1.42;;;;;;;;;;10267949;28;20224;-83
2023/04/12 12:43:17;;;;;;;1.40;0.93;;;;;;;;;;10273020;28;20284;-84
2023/04/12 12:48:20;;;;;;;1.20;1.10;;;;;;;;;;10285787;28;20311;-80
2023/04/12 12:53:21;;;;;;;2.67;0.77;;;;;;;;;;10212437;28;20307;-75
2023/04/12 12:58:22;;;;;;;1.00;0.90;;;;;;;;;;10214610;28;20225;-82
2023/04/12 13:03:23;;;;;;;1.02;1.02;;;;;;;;;;10234852;28;20224;-81
2023/04/12 13:08:25;;;;;;;2.88;1.38;;;;;;;;;;10224525;28;20229;-81
2023/04/12 13:13:26;;;;;;;2.55;1.40;;;;;;;;;;10255140;28;20433;-83
2023/04/12 13:18:27;;;;;;;4.00;1.02;;;;;;;;;;10246086;28;20613;-83
2023/04/12 13:23:28;;;;;;;1.50;1.15;;;;;;;;;;10238965;28;20217;-78
2023/04/12 13:28:29;;;;;;;1.25;1.20;;;;;;;;;;10249781;28;20275;-84
2023/04/12 13:33:30;;;;;;;3.33;0.90;;;;;;;;;;10232579;28;20244;-81
2023/04/12 13:38:31;;;;;;;2.33;0.88;;;;;;;;;;10236123;28;20220;-83
2023/04/12 13:43:32;;;;;;;1.65;0.90;;;;;;;;;;10243302;28;20213;-84
2023/04/12 13:48:33;;;;;;;2.63;1.15;;;;;;;;;;10234478;28;20225;-79
2023/04/12 13:53:35;;;;;;;1.58;1.10;;;;;;;;;;10240904;28;20811;-83
2023/04/12 13:58:38;;;;;;;1.50;1.10;;;;;;;;;;10256397;28;20867;-82
2023/04/12 14:03:39;;;;;;;2.95;1.65;;;;;;;;;;10240028;28;20221;-84
2023/04/12 14:08:40;;;;;;;1.98;0.90;;;;;;;;;;10232247;28;20813;-80
2023/04/12 14:13:41;;;;;;;1.23;1.15;;;;;;;;;;10241203;28;20237;-82
2023/04/12 14:18:42;;;;;;;1.45;1.10;;;;;;;;;;10246491;28;20222;-80
2023/04/12 14:23:43;;;;;;;3.90;1.20;;;;;;;;;;10254515;28;20317;-81
2023/04/12 14:28:44;;;;;;;1.42;1.42;;;;;;;;;;10235304;28;20269;-77
2023/04/12 14:33:45;;;;;;;0.85;0.85;;;;;;;;;;10261163;28;20280;-81
2023/04/12 14:38:46;;;;;;;1.58;1.00;;;;;;;;;;10242613;28;20228;-80
2023/04/12 14:43:48;;;;;;;0.88;0.88;;;;;;;;;;10285527;28;20230;-80
2023/04/12 14:48:49;;;;;;;1.13;1.10;;;;;;;;;;10259117;28;20331;-82
2023/04/12 14:53:50;;;;;;;1.13;1.02;;;;;;;;;;10271232;28;20261;-80
2023/04/12 14:58:52;;;;;;;1.50;1.33;;;;;;;;;;10306339;28;20248;-79
2023/04/12 15:03:54;;;;;;;0.90;0.90;;;;;;;;;;10260301;28;21277;-82
2023/04/12 15:09:03;;;;;;;1.50;1.08;;;;;;;;;;10299214;28;20217;-81
2023/04/12 15:14:06;;;;;;;1.60;1.58;;;;;;;;;;10288640;28;20910;-83
2023/04/12 15:19:07;;;;;;;1.40;1.40;;;;;;;;;;10289431;28;20229;-82
2023/04/12 15:24:08;;;;;;;1.83;1.73;;;;;;;;;;10304547;28;20217;-81
2023/04/12 15:29:09;;;;;;;1.10;1.10;;;;;;;;;;10284674;28;20250;-81
2023/04/12 15:34:12;;;;;;;1.50;1.40;;;;;;;;;;10280870;28;20606;-82
2023/04/12 15:39:20;;;;;;;4.82;1.30;;;;;;;;;;10282036;28;20213;-81
2023/04/12 15:44:31;;;;;;;1.30;1.30;;;;;;;;;;10261910;28;20220;-81
2023/04/12 15:49:38;;;;;;;2.47;1.50;;;;;;;;;;10275930;28;20293;-78
2023/04/12 15:54:55;;;;;;;1.65;1.55;;;;;;;;;;10271685;28;20224;-80
2023/04/12 15:59:58;;;;;;;3.20;1.40;;;;;;;;;;10286494;28;20221;-81
2023/04/12 16:05:26;;;;;;;1.85;1.75;;;;;;;;;;10259255;28;20229;-80
2023/04/12 16:10:36;;;;;;;1.23;1.00;;;;;;;;;;10251716;28;20224;-80
2023/04/12 16:15:58;;;;;;;1.20;1.10;;;;;;;;;;10250664;28;21166;-84
2023/04/12 16:21:02;;;;;;;1.15;1.15;;;;;;;;;;10295106;28;20212;-80
2023/04/12 16:26:10;;;;;;;2.30;1.55;;;;;;;;;;10282322;28;20580;-81
2023/04/12 16:31:37;;;;;;;1.10;1.10;;;;;;;;;;10268103;28;20232;-81
2023/04/12 16:36:43;;;;;;;1.70;1.70;;;;;;;;;;10300837;28;20212;-80
2023/04/12 16:42:06;;;;;;;0.90;0.90;;;;;;;;;;10287404;28;20317;-82
2023/04/12 16:47:25;;;;;;;1.50;1.42;;;;;;;;;;10270131;28;20261;-80
2023/04/12 16:53:08;;;;;;;1.08;1.08;;;;;;;;;;10288796;28;20955;-79
2023/04/12 16:58:10;;;;;;;2.05;1.10;;;;;;;;;;10279278;28;20217;-80
2023/04/12 17:03:20;;;;;;;1.38;1.30;;;;;;;;;;10270710;28;20231;-78
2023/04/12 17:08:32;;;;;;;1.05;1.05;;;;;;;;;;10269917;28;20212;-79
2023/04/12 17:13:55;;;;;;;2.05;1.40;;;;;;;;;;10286040;28;20229;-78
2023/04/12 17:19:03;;;;;;;2.95;1.35;;;;;;;;;;10277471;28;20216;-81
2023/04/12 17:24:13;;;;;;;1.10;1.10;;;;;;;;;;10270888;28;20232;-81
2023/04/12 17:29:18;;;;;;;1.67;1.58;;;;;;;;;;10275575;28;20229;-81
2023/04/12 17:34:27;;;;;;;2.70;1.92;;;;;;;;;;10281806;28;20217;-82
2023/04/12 17:39:46;;;;;;;;;;;;;;;;;;;;;
2023/04/12 17:44:56;;;;;;;1.65;1.52;;;;;;;;;;10289586;28;20297;-82
2023/04/12 17:50:32;;;;;;;1.10;1.10;;;;;;;;;;10278018;28;20945;-81
2023/04/12 17:55:56;;;;;;;1.30;1.30;;;;;;;;;;10221769;28;20217;-81
2023/04/12 18:01:06;;;;;;;1.48;1.40;;;;;;;;;;10262832;28;20230;-82
2023/04/12 18:06:07;;;;;;;1.70;1.65;;;;;;;;;;10270917;28;20295;-79
2023/04/12 18:11:09;;;;;;;1.40;1.40;;;;;;;;;;10238806;28;20279;-84
2023/04/12 18:16:10;;;;;;;1.35;1.10;;;;;;;;;;10281997;28;20272;-82
2023/04/12 18:21:13;;;;;;;1.35;1.15;;;;;;;;;;10276228;28;20224;-84
2023/04/12 18:26:14;;;;;;;2.88;1.50;;;;;;;;;;10260051;28;20218;-84
2023/04/12 18:31:15;;;;;;;1.40;1.40;;;;;;;;;;10272679;28;20221;-82
2023/04/12 18:36:17;;;;;;;1.42;1.40;;;;;;;;;;10260112;28;20742;-83
2023/04/12 18:41:18;;;;;;;2.70;1.42;;;;;;;;;;10284992;28;20293;-83
2023/04/12 18:46:19;;;;;;;1.40;1.40;;;;;;;;;;10281739;28;20221;-82
2023/04/12 18:51:23;;;;;;;1.02;1.02;;;;;;;;;;10257986;28;20229;-87
2023/04/12 18:56:24;;;;;;;1.85;1.40;;;;;;;;;;10266825;28;20253;-85
2023/04/12 19:01:25;;;;;;;1.88;1.77;;;;;;;;;;10270311;28;20253;-83
2023/04/12 19:06:27;;;;;;;1.42;1.42;;;;;;;;;;10281869;28;20258;-87
2023/04/12 19:11:28;;;;;;;1.23;1.23;;;;;;;;;;10294486;28;20727;-86
2023/04/12 19:16:29;;;;;;;1.75;1.70;;;;;;;;;;10248959;28;20221;-86
2023/04/12 19:21:31;;;;;;;3.05;1.85;;;;;;;;;;10267321;28;20221;-85
2023/04/12 19:26:35;;;;;;;1.83;1.45;;;;;;;;;;10261191;28;20221;-85
2023/04/12 19:31:36;;;;;;;2.15;2.05;;;;;;;;;;10266061;28;20332;-83
2023/04/12 19:36:37;;;;;;;2.85;2.67;;;;;;;;;;10282549;28;20244;-86
2023/04/12 19:41:38;;;;;;;2.78;2.60;;;;;;;;;;10264555;28;20635;-84
2023/04/12 19:46:39;;;;;;;2.80;2.40;;;;;;;;;;10269990;28;20225;-84
2023/04/12 19:51:40;;;;;;;2.50;2.40;;;;;;;;;;10265808;28;20217;-83
2023/04/12 19:56:42;;;;;;;2.78;2.47;;;;;;;;;;10275541;28;22023;-84
2023/04/12 20:01:47;;;;;;;2.70;2.50;;;;;;;;;;10269002;28;20242;-86
2023/04/12 20:06:52;;;;;;;3.55;3.35;;;;;;;;;;10275252;28;20368;-82
2023/04/12 20:11:55;;;;;;;2.40;2.30;;;;;;;;;;10279615;28;20703;-82
2023/04/12 20:16:56;;;;;;;3.70;3.42;;;;;;;;;;10275079;28;20248;-84
2023/04/12 20:22:00;;;;;;;2.38;2.15;;;;;;;;;;10302470;28;20224;-83
2023/04/12 20:27:02;;;;;;;3.20;3.00;;;;;;;;;;10273604;28;20226;-81
2023/04/12 20:32:05;;;;;;;3.15;2.95;;;;;;;;;;10274369;28;20229;-81
2023/04/12 20:37:06;;;;;;;5.68;3.72;;;;;;;;;;10275009;28;20228;-86
2023/04/12 20:42:10;;;;;;;3.55;3.25;;;;;;;;;;10275374;28;20229;-81
2023/04/12 20:47:17;;;;;;;3.33;3.13;;;;;;;;;;10278016;28;20214;-83
2023/04/12 20:52:24;;;;;;;4.50;4.07;;;;;;;;;;10279859;28;20257;-81
2023/04/12 20:57:37;;;;;;;3.17;2.97;;;;;;;;;;10257944;28;20218;-82
2023/04/12 21:02:53;;;;;;;2.58;2.47;;;;;;;;;;10266699;28;20248;-82
2023/04/12 21:08:02;;;;;;;2.00;1.95;;;;;;;;;;10290706;28;20233;-83
2023/04/12 21:13:12;;;;;;;1.88;1.77;;;;;;;;;;10288211;28;20217;-83
2023/04/12 21:18:22;;;;;;;4.22;3.33;;;;;;;;;;10312026;28;20292;-83
2023/04/12 21:23:36;;;;;;;0.88;0.88;;;;;;;;;;10306558;28;20700;-81
2023/04/12 21:28:50;;;;;;;1.65;1.55;;;;;;;;;;10307445;28;20242;-82
2023/04/12 21:34:03;;;;;;;0.73;0.73;;;;;;;;;;10278019;28;20224;-82
2023/04/12 21:39:09;;;;;;;0.93;0.93;;;;;;;;;;10276001;28;20244;-83
2023/04/12 21:44:27;;;;;;;1.15;1.15;;;;;;;;;;10289007;28;20288;-83
2023/04/12 21:49:38;;;;;;;1.60;1.00;;;;;;;;;;10282587;28;20308;-83
2023/04/12 21:54:42;;;;;;;2.75;0.98;;;;;;;;;;10300274;28;20224;-81
2023/04/12 22:00:26;;;;;;;1.00;1.00;;;;;;;;;;10289135;28;20651;-84
2023/04/12 22:05:16;;;;;;;2.05;0.88;;;;;;;;;;10284193;28;20299;-84
2023/04/12 22:10:35;;;;;;;3.10;1.20;;;;;;;;;;10306921;28;20209;-80
2023/04/12 22:15:42;;;;;;;1.15;1.05;;;;;;;;;;10295297;28;20232;-85
2023/04/12 22:21:12;;;;;;;1.52;1.35;;;;;;;;;;10259393;28;20230;-84
2023/04/12 22:26:33;;;;;;;0.90;0.90;;;;;;;;;;10293730;28;20658;-85
2023/04/12 22:31:37;;;;;;;1.25;1.00;;;;;;;;;;10300168;28;20225;-83
2023/04/12 22:37:02;;;;;;;2.75;1.20;;;;;;;;;;10290905;28;20240;-83
2023/04/12 22:42:24;;;;;;;1.00;1.00;;;;;;;;;;10289806;28;20222;-85
2023/04/12 22:47:26;;;;;;;4.63;0.90;;;;;;;;;;10279050;28;20785;-85
2023/04/12 22:52:48;;;;;;;4.00;1.02;;;;;;;;;;10285853;28;20244;-84
2023/04/12 22:57:55;;;;;;;1.10;1.10;;;;;;;;;;10295721;28;20217;-84
2023/04/12 23:03:02;;;;;;;1.00;1.00;;;;;;;;;;10278137;28;20248;-81
2023/04/12 23:08:13;;;;;;;1.55;0.70;;;;;;;;;;10270206;28;20268;-85
2023/04/12 23:13:26;;;;;;;1.42;1.08;;;;;;;;;;10296683;28;20592;-84
2023/04/12 23:18:55;;;;;;;2.83;1.13;;;;;;;;;;10295957;28;20697;-85
2023/04/12 23:24:18;;;;;;;;;;;;;;;;;;;;;
2023/04/12 23:29:42;;;;;;;0.80;0.80;;;;;;;;;;10299048;28;20222;-84
2023/04/12 23:34:55;;;;;;;0.98;0.98;;;;;;;;;;10242146;28;20289;-84
2023/04/12 23:40:12;;;;;;;0.60;0.60;;;;;;;;;;10252516;28;20237;-83
2023/04/12 23:45:42;;;;;;;1.05;0.80;;;;;;;;;;10274378;28;20231;-83
2023/04/12 23:50:57;;;;;;;3.40;0.90;;;;;;;;;;10264579;28;20221;-83
2023/04/12 23:56:05;;;;;;;0.88;0.88;;;;;;;;;;10275957;28;20225;-84
